Latest Weather Observations for Low Head

IDT60801

Issued at 10:31 am EST Wednesday 1 July 2015 (issued every 30 minutes, with the page automatically refreshed every 10 minutes)

About weather observations | Map of weather stations | Latest weather observations for TAS | Other Formats
Station Details ID: 091293 Name: LOW HEAD Lat: -41.05 Lon: 146.79 Height: 3.0 m
Data from the previous 72 hours. | See also: Recent months at Low Head
Date/Time
EST
Temp
°C
App
Temp
°C
Dew
Point
Rel
Hum
%
Delta-T
°C
Wind Press
QNH
hPa
Press
MSL
hPa
Rain
since 9 am
mm
Dir
 
Spd
km/h
Gust
km/h
Spd
kts
Gust
kts
01/10:30am 10.8 4.9 10.6 99 0.1 WNW 32 39 17 21 1021.5 1021.5 0.0
01/10:09am 9.7 7.2 9.6 99 0.0 WSW 13 30 7 16 1021.8 1021.8 0.0
01/10:00am 8.4 7.6 8.3 99 0.0 W 2 9 1 5 1021.8 1021.8 0.0
01/09:30am 7.0 5.1 6.9 99 0.0 SSE 6 13 3 7 1022.1 1022.1 0.0
01/09:00am 5.9 3.2 5.8 99 0.0 S 9 13 5 7 1022.4 1022.4 0.2
01/08:30am 3.8 0.0 3.7 99 0.0 S 13 15 7 8 1022.7 1022.7 0.2
01/08:00am 4.0 -0.2 3.9 99 0.0 SSE 15 17 8 9 1022.6 1022.6 0.2
01/07:30am 3.7 -0.2 3.6 99 0.0 SSE 13 17 7 9 1022.7 1022.7 0.2
01/07:00am 3.5 -1.2 3.4 99 0.0 SSE 17 20 9 11 1022.7 1022.7 0.2
01/06:30am 3.6 -1.0 3.5 99 0.0 SSE 17 19 9 10 1023.1 1023.1 0.2
01/06:00am 3.5 -1.2 3.4 99 0.0 SSE 17 19 9 10 1023.3 1023.3 0.2
01/05:30am 4.3 -0.6 4.2 99 0.0 S 19 22 10 12 1023.3 1023.3 0.0
01/05:00am 4.3 -0.6 4.2 99 0.0 S 19 22 10 12 1023.3 1023.3 0.0
01/04:30am 4.3 -0.6 4.2 99 0.0 S 19 22 10 12 1023.4 1023.4 0.0
01/04:00am 4.2 -0.3 4.1 99 0.0 SSE 17 20 9 11 1023.6 1023.6 0.0
01/03:30am 4.4 -0.5 4.3 99 0.0 SSE 19 22 10 12 1023.7 1023.7 0.0
01/03:00am 4.6 -0.4 4.5 99 0.0 S 20 26 11 14 1024.0 1024.0 0.0
01/02:30am 4.5 -1.3 4.4 99 0.0 S 24 28 13 15 1024.1 1024.1 0.0
01/02:00am 4.2 -1.3 4.1 99 0.0 S 22 26 12 14 1024.1 1024.1 0.0
01/01:30am 5.2 -0.1 5.1 99 0.0 S 22 26 12 14 1024.1 1024.1 0.0
01/01:00am 5.2 0.3 5.1 99 0.0 S 20 24 11 13 1024.1 1024.1 0.0
01/12:30am 4.8 0.0 4.7 99 0.0 SSE 19 22 10 12 1024.5 1024.5 0.0
01/12:00am 5.4 0.5 5.3 99 0.0 S 20 24 11 13 1024.6 1024.6 0.0
 
Date/Time
EST
Temp
°C
App
Temp
°C
Dew
Point
Rel
Hum
%
Delta-T
°C
Wind Press
QNH
hPa
Press
MSL
hPa
Rain
since 9 am
mm
Dir
 
Spd
km/h
Gust
km/h
Spd
kts
Gust
kts
30/11:30pm 5.2 0.4 4.9 98 0.1 SSE 19 22 10 12 1024.8 1024.8 0.0
30/11:00pm 5.2 -0.1 4.9 98 0.1 S 22 26 12 14 1024.8 1024.8 0.0
30/10:30pm 5.1 -0.2 4.8 98 0.1 SSE 22 26 12 14 1024.6 1024.6 0.0
30/10:00pm 5.6 0.0 5.3 98 0.1 S 24 28 13 15 1024.6 1024.6 0.0
30/09:30pm 5.9 0.3 5.5 97 0.2 SSE 24 28 13 15 1024.6 1024.6 0.0
30/09:00pm 5.8 1.0 5.4 97 0.2 SSE 20 24 11 13 1024.5 1024.5 0.0
30/08:30pm 6.0 0.8 5.6 97 0.2 S 22 26 12 14 1024.6 1024.6 0.0
30/08:00pm 6.5 1.4 5.9 96 0.3 S 22 26 12 14 1024.6 1024.6 0.0
30/07:30pm 6.2 1.4 5.5 95 0.3 SSE 20 24 11 13 1024.5 1024.5 0.0
30/07:00pm 6.8 1.7 5.9 94 0.4 S 22 26 12 14 1024.4 1024.4 0.0
30/06:30pm 7.3 4.0 6.2 93 0.5 S 13 19 7 10 1024.0 1024.0 0.0
30/06:00pm 9.4 6.5 8.3 93 0.5 SSW 13 20 7 11 1024.0 1024.0 0.0
30/05:30pm 9.7 7.3 8.6 93 0.5 SSW 11 19 6 10 1023.9 1023.9 0.0
30/05:00pm 8.8 6.5 7.6 92 0.6 S 9 17 5 9 1023.8 1023.8 0.0
30/04:30pm 8.7 6.0 7.5 92 0.6 S 11 13 6 7 1023.9 1023.9 0.0
30/04:00pm 9.4 7.7 8.2 92 0.6 S 7 11 4 6 1023.7 1023.7 0.0
30/03:30pm 9.1 6.2 8.0 93 0.5 S 13 15 7 8 1023.8 1023.8 0.0
30/03:00pm 8.6 5.9 7.5 93 0.5 S 11 13 6 7 1023.7 1023.7 0.0
30/02:30pm 8.4 5.7 7.5 94 0.4 S 11 13 6 7 1023.9 1023.9 0.0
30/02:00pm 7.9 4.8 7.1 95 0.4 S 13 15 7 8 1024.1 1024.1 0.0
30/01:30pm 8.0 4.9 7.2 95 0.4 S 13 17 7 9 1024.4 1024.4 0.0
30/01:00pm 7.9 4.8 7.3 96 0.3 S 13 17 7 9 1024.5 1024.5 0.0
30/12:30pm 7.6 4.1 7.2 97 0.2 S 15 17 8 9 1024.8 1024.8 0.0
30/12:00pm 7.2 3.2 6.8 97 0.2 S 17 20 9 11 1025.2 1025.2 0.0
30/11:30am 7.0 3.0 6.7 98 0.1 S 17 20 9 11 1025.9 1025.9 0.0
30/11:00am 6.4 2.3 6.1 98 0.1 S 17 20 9 11 1026.2 1026.2 0.0
30/10:30am 6.1 1.9 5.8 98 0.1 SSE 17 20 9 11 1026.4 1026.4 0.0
30/10:00am 5.8 1.2 5.5 98 0.1 S 19 20 10 11 1026.6 1026.6 0.0
30/09:30am 5.3 1.3 5.0 98 0.1 SSE 15 19 8 10 1026.4 1026.4 0.0
30/09:00am 4.9 0.8 4.5 97 0.2 SSE 15 19 8 10 1026.4 1026.4 0.0
30/08:30am 5.1 0.3 4.7 97 0.2 S 19 22 10 12 1026.2 1026.2 0.0
30/08:00am 5.4 0.7 5.0 97 0.2 S 19 22 10 12 1025.9 1025.9 0.0
30/07:30am 4.9 -0.2 4.3 96 0.3 S 20 24 11 13 1025.8 1025.8 0.0
30/07:00am 4.6 -0.3 3.9 95 0.3 S 19 22 10 12 1025.6 1025.6 0.0
30/06:30am 4.3 0.0 3.4 94 0.4 SSE 15 19 8 10 1025.4 1025.4 0.0
30/06:00am 4.4 0.1 3.4 93 0.4 S 15 15 8 8 1025.3 1025.3 0.0
30/05:30am 6.1 2.1 4.7 91 0.6 S 15 17 8 9 1025.1 1025.1 0.0
30/05:00am 8.2 4.9 6.3 88 0.9 SW 13 17 7 9 1025.0 1025.0 0.0
30/04:30am 9.0 4.7 7.1 88 0.9 WSW 19 24 10 13 1025.1 1025.1 0.0
30/04:00am 9.1 4.7 7.2 88 0.9 WSW 20 26 11 14 1025.4 1025.4 0.0
30/03:30am 9.0 4.7 7.1 88 0.9 WSW 19 20 10 11 1025.6 1025.6 0.0
30/03:00am 9.6 4.9 7.7 88 0.9 W 22 26 12 14 1025.6 1025.6 0.0
30/02:30am 9.6 5.4 7.5 87 1.0 WSW 19 22 10 12 1025.8 1025.8 0.0
30/02:00am 10.5 4.4 8.3 86 1.1 W 30 35 16 19 1025.7 1025.7 0.0
30/01:30am 10.7 4.3 8.5 86 1.1 W 32 37 17 20 1025.8 1025.8 0.0
30/01:00am 10.9 4.5 8.7 86 1.1 W 32 39 17 21 1026.0 1026.0 0.0
30/12:30am 10.9 4.5 8.7 86 1.1 W 32 37 17 20 1026.2 1026.2 0.0
30/12:00am 10.9 4.4 8.3 84 1.3 W 32 35 17 19 1026.5 1026.5 0.0
 
Date/Time
EST
Temp
°C
App
Temp
°C
Dew
Point
Rel
Hum
%
Delta-T
°C
Wind Press
QNH
hPa
Press
MSL
hPa
Rain
since 9 am
mm
Dir
 
Spd
km/h
Gust
km/h
Spd
kts
Gust
kts
29/11:30pm 11.1 4.5 8.7 85 1.2 W 33 39 18 21 1026.4 1026.4 0.0
29/11:00pm 11.2 4.9 8.9 86 1.1 W 32 37 17 20 1026.4 1026.4 0.0
29/10:30pm 11.3 4.8 9.0 86 1.1 W 33 39 18 21 1026.4 1026.4 0.0
29/10:00pm 11.4 4.6 9.1 86 1.1 WNW 35 41 19 22 1026.7 1026.7 0.0
29/09:30pm 11.5 5.3 9.2 86 1.2 WNW 32 37 17 20 1026.9 1026.9 0.0
29/09:00pm 11.7 5.6 9.6 87 1.1 WNW 32 35 17 19 1026.9 1026.9 0.0
29/08:30pm 11.9 6.2 9.8 87 1.1 WNW 30 35 16 19 1027.0 1027.0 0.0
29/08:00pm 12.1 6.1 10.0 87 1.1 WNW 32 39 17 21 1027.1 1027.1 0.0
29/07:30pm 12.3 5.8 10.2 87 1.1 WNW 35 41 19 22 1027.1 1027.1 0.0
29/07:00pm 12.4 5.5 10.3 87 1.1 WNW 37 44 20 24 1026.9 1026.9 0.0
29/06:30pm 12.5 5.6 10.4 87 1.1 WNW 37 43 20 23 1026.8 1026.8 0.0
29/06:00pm 12.5 6.1 10.6 88 1.0 WNW 35 43 19 23 1026.6 1026.6 0.0
29/05:30pm 12.6 6.1 10.5 87 1.1 WNW 35 43 19 23 1026.6 1026.6 0.0
29/05:00pm 12.6 6.1 10.5 87 1.1 WNW 35 41 19 22 1026.6 1026.6 0.0
29/04:30pm 12.8 6.0 10.5 86 1.2 NW 37 44 20 24 1026.7 1026.7 0.0
29/04:00pm 13.1 6.3 10.6 85 1.3 NW 37 44 20 24 1026.8 1026.8 0.0
29/03:30pm 13.2 6.8 10.6 84 1.4 WNW 35 43 19 23 1026.9 1026.9 0.0
29/03:00pm 13.3 6.1 10.5 83 1.4 WNW 39 44 21 24 1026.9 1026.9 0.0
29/02:30pm 13.3 6.5 10.5 83 1.5 WNW 37 44 20 24 1027.0 1027.0 0.0
29/02:00pm 13.4 6.9 10.4 82 1.5 NW 35 43 19 23 1027.1 1027.1 0.0
29/01:30pm 13.5 7.6 10.5 82 1.6 WNW 32 37 17 20 1027.2 1027.2 0.0
29/01:00pm 13.1 7.1 10.1 82 1.5 WNW 32 37 17 20 1027.5 1027.5 0.0
29/12:30pm 13.0 6.8 10.2 83 1.4 WNW 33 37 18 20 1027.9 1027.9 0.0
29/12:00pm 12.8 6.6 10.2 84 1.3 WNW 33 39 18 21 1028.3 1028.3 0.0
29/11:30am 12.7 6.1 10.1 84 1.3 WNW 35 41 19 22 1028.7 1028.7 0.0
29/11:00am 12.6 6.0 10.1 85 1.3 WNW 35 41 19 22 1028.9 1028.9 0.0
29/10:30am 12.6 5.7 10.3 86 1.2 WNW 37 41 20 22 1029.1 1029.1 0.0
29/10:00am 12.5 6.0 10.2 86 1.2 WNW 35 41 19 22 1029.2 1029.2 0.0
29/09:30am 12.3 5.4 10.2 87 1.1 WNW 37 43 20 23 1029.3 1029.3 0.0
29/09:00am 11.9 4.9 10.0 88 1.0 WNW 37 41 20 22 1029.2 1029.2 0.0
29/08:30am 11.9 5.7 10.0 88 1.0 WNW 33 39 18 21 1028.9 1028.9 0.0
29/08:00am 11.6 4.6 9.9 89 0.9 WNW 37 43 20 23 1028.9 1028.9 0.0
29/07:30am 11.7 5.1 9.9 89 0.9 WNW 35 41 19 22 1028.7 1028.7 0.0
29/07:00am 11.6 5.0 9.9 89 0.9 WNW 35 41 19 22 1028.7 1028.7 0.0
29/06:30am 11.7 5.1 9.9 89 0.9 WNW 35 41 19 22 1028.4 1028.4 0.0
29/06:00am 11.7 5.1 9.9 89 0.9 WNW 35 41 19 22 1028.2 1028.2 0.0
29/05:30am 11.7 5.5 9.9 89 0.9 WNW 33 39 18 21 1028.1 1028.1 0.0
29/05:00am 11.7 5.5 9.9 89 0.9 WNW 33 41 18 22 1027.8 1027.8 0.0
29/04:30am 11.7 5.1 9.9 89 0.9 W 35 39 19 21 1027.8 1027.8 0.0
29/04:00am 11.5 4.8 9.8 89 0.9 WNW 35 41 19 22 1027.8 1027.8 0.0
29/03:30am 11.6 5.4 9.9 89 0.9 WNW 33 41 18 22 1027.9 1027.9 0.0
29/03:00am 11.6 4.6 9.9 89 0.9 WNW 37 43 20 23 1028.1 1028.1 0.0
29/02:30am 11.7 4.3 9.9 89 0.9 WNW 39 44 21 24 1027.9 1027.9 0.0
29/02:00am 11.7 3.9 9.9 89 0.9 WNW 41 48 22 26 1027.7 1027.7 0.0
29/01:30am 11.6 3.5 9.9 89 0.9 WNW 43 50 23 27 1027.6 1027.6 0.0
29/01:00am 11.8 3.7 10.0 89 0.9 WNW 43 50 23 27 1027.8 1027.8 0.0
29/12:30am 11.8 3.5 9.9 88 1.0 WNW 44 50 24 27 1027.9 1027.9 0.0
29/12:00am 11.9 3.8 10.1 89 0.9 WNW 43 48 23 26 1028.1 1028.1 0.0
 
Date/Time
EST
Temp
°C
App
Temp
°C
Dew
Point
Rel
Hum
%
Delta-T
°C
Wind Press
QNH
hPa
Press
MSL
hPa
Rain
since 9 am
mm
Dir
 
Spd
km/h
Gust
km/h
Spd
kts
Gust
kts
28/11:30pm 11.9 4.2 10.1 89 0.9 WNW 41 46 22 25 1028.3 1028.3 0.0
28/11:00pm 12.0 4.3 10.1 88 1.0 WNW 41 48 22 26 1028.4 1028.4 0.0
28/10:30pm 12.0 4.7 10.1 88 1.0 WNW 39 46 21 25 1028.7 1028.7 0.0
28/10:00pm 12.0 4.3 10.1 88 1.0 WNW 41 50 22 27 1028.8 1028.8 0.0
28/09:30pm 12.0 3.9 10.1 88 1.0 WNW 43 48 23 26 1028.8 1028.8 0.0
28/09:00pm 12.2 4.2 10.3 88 1.0 WNW 43 48 23 26 1028.7 1028.7 0.0
28/08:30pm 12.1 4.0 10.2 88 1.0 WNW 43 48 23 26 1028.5 1028.5 0.0
28/08:00pm 12.2 4.9 10.1 87 1.1 WNW 39 46 21 25 1028.4 1028.4 0.0
28/07:30pm 12.3 5.4 10.2 87 1.1 WNW 37 44 20 24 1028.2 1028.2 0.0
28/07:00pm 12.5 5.2 10.2 86 1.2 WNW 39 46 21 25 1028.0 1028.0 0.0
28/06:30pm 12.5 4.8 10.2 86 1.2 WNW 41 50 22 27 1027.9 1027.9 0.0
28/06:00pm 12.5 4.8 10.0 85 1.3 WNW 41 48 22 26 1027.7 1027.7 0.0
28/05:30pm 12.7 5.8 10.2 85 1.3 WNW 37 46 20 25 1027.7 1027.7 0.0
28/05:00pm 12.7 5.4 10.1 84 1.3 WNW 39 43 21 23 1027.6 1027.6 0.0
28/04:30pm 13.1 5.8 10.3 83 1.4 WNW 39 46 21 25 1027.4 1027.4 0.0
28/04:00pm 13.3 5.3 10.5 83 1.4 WNW 43 46 23 25 1027.2 1027.2 0.0
28/03:30pm 13.4 5.8 10.6 83 1.5 WNW 41 50 22 27 1026.9 1026.9 0.0
28/03:00pm 13.4 6.2 10.4 82 1.5 WNW 39 44 21 24 1027.0 1027.0 0.0
28/02:30pm 13.6 6.4 10.6 82 1.6 WNW 39 46 21 25 1027.0 1027.0 0.0
28/02:00pm 13.7 7.3 10.7 82 1.6 NW 35 44 19 24 1027.0 1027.0 0.0
28/01:30pm 13.3 6.8 10.3 82 1.6 NW 35 43 19 23 1027.2 1027.2 0.0
28/01:00pm 13.0 5.5 9.6 80 1.7 WNW 39 44 21 24 1027.5 1027.5 0.0
28/12:30pm 13.3 6.2 9.7 79 1.8 WNW 37 43 20 23 1028.0 1028.0 0.0
28/12:00pm 13.3 6.2 9.7 79 1.8 WNW 37 44 20 24 1028.1 1028.1 0.0
28/11:30am 13.0 5.5 9.6 80 1.7 WNW 39 46 21 25 1028.5 1028.5 0.0
28/11:00am 12.8 5.7 9.6 81 1.6 WNW 37 44 20 24 1028.5 1028.5 0.0

Other Formats:

Comma delimited format used in spreadsheet applications
http://www.bom.gov.au/fwo/IDT60801/IDT60801.95964.axf

JavaScript Object Notation format (JSON) in row-major order
http://www.bom.gov.au/fwo/IDT60801/IDT60801.95964.json